createdAt,value
2018-03-27T00:01:46.097Z,80.70
2018-03-27T00:04:13.044Z,80.80
2018-03-27T00:06:40.013Z,80.80
2018-03-27T00:09:06.228Z,80.70
2018-03-27T00:11:33.147Z,80.10
2018-03-27T00:13:59.338Z,80.10
2018-03-27T00:16:25.549Z,79.30
2018-03-27T00:18:52.499Z,79.70
2018-03-27T00:21:18.662Z,79.60
2018-03-27T00:23:44.831Z,80.20
2018-03-27T00:26:11.041Z,79.00
2018-03-27T00:28:49.751Z,79.10
2018-03-27T00:31:28.231Z,78.60
2018-03-27T00:34:06.759Z,78.30
2018-03-27T00:36:45.256Z,78.70
2018-03-27T00:39:23.978Z,78.20
2018-03-27T00:44:59.959Z,78.40
2018-03-27T00:47:26.128Z,79.00
2018-03-27T00:49:52.318Z,77.70
2018-03-27T00:52:18.519Z,77.60
2018-03-27T00:54:45.423Z,78.30
2018-03-27T00:57:11.602Z,78.20
2018-03-27T00:59:38.579Z,77.80
2018-03-27T01:02:04.807Z,77.70
2018-03-27T01:04:31.007Z,77.80
2018-03-27T01:06:57.945Z,78.80
2018-03-27T01:09:24.151Z,78.30
2018-03-27T01:11:50.353Z,78.20
2018-03-27T01:14:16.568Z,78.00
2018-03-27T01:16:43.487Z,78.30
2018-03-27T01:19:09.675Z,78.10
2018-03-27T01:21:35.894Z,77.00
2018-03-27T01:24:02.080Z,77.20
2018-03-27T01:26:28.296Z,77.30
2018-03-27T01:28:54.509Z,77.00
2018-03-27T01:31:20.724Z,77.60
2018-03-27T01:33:46.947Z,77.10
2018-03-27T01:36:13.882Z,77.10
2018-03-27T01:38:40.126Z,77.00
2018-03-27T01:41:07.038Z,78.10
2018-03-27T01:43:33.950Z,76.80
2018-03-27T01:46:00.151Z,76.80
2018-03-27T01:48:26.384Z,77.40
2018-03-27T01:50:52.596Z,77.50
2018-03-27T01:53:18.808Z,78.60
2018-03-27T01:55:45.000Z,78.00
2018-03-27T01:58:11.985Z,77.50
2018-03-27T02:00:38.210Z,77.40
2018-03-27T02:03:04.391Z,77.20
2018-03-27T02:05:32.060Z,77.90
2018-03-27T02:07:58.262Z,77.90
2018-03-27T02:10:24.447Z,78.80
2018-03-27T02:12:57.519Z,77.40
2018-03-27T02:15:30.675Z,78.60
2018-03-27T02:18:02.997Z,77.70
2018-03-27T02:20:36.071Z,78.40
2018-03-27T02:23:08.227Z,78.20
2018-03-27T02:25:34.412Z,78.70
2018-03-27T02:28:00.618Z,78.70
2018-03-27T02:30:27.577Z,79.00
2018-03-27T02:32:54.503Z,78.90
2018-03-27T02:35:20.701Z,78.80
2018-03-27T02:37:46.895Z,79.30
2018-03-27T02:40:13.079Z,78.80
2018-03-27T02:42:39.327Z,78.50
2018-03-27T02:45:05.524Z,78.80
2018-03-27T02:47:31.729Z,79.20
2018-03-27T02:49:57.966Z,79.30
2018-03-27T02:52:24.139Z,79.30
2018-03-27T02:54:50.306Z,79.20
2018-03-27T02:57:17.269Z,79.80
2018-03-27T02:59:44.176Z,79.70
2018-03-27T03:02:10.434Z,79.60
2018-03-27T03:04:36.633Z,79.40
2018-03-27T03:07:02.866Z,79.50
2018-03-27T03:09:29.131Z,79.80
2018-03-27T03:11:55.288Z,79.60
2018-03-27T03:14:22.262Z,81.00
2018-03-27T03:16:48.519Z,80.20
2018-03-27T03:19:14.696Z,80.50
2018-03-27T03:21:41.636Z,81.20
2018-03-27T03:24:07.833Z,81.10
2018-03-27T03:26:34.031Z,81.80
2018-03-27T03:29:00.271Z,81.90
2018-03-27T03:31:26.432Z,81.80
2018-03-27T03:33:52.623Z,81.60
2018-03-27T03:36:19.540Z,82.10
2018-03-27T03:38:45.792Z,81.90
2018-03-27T03:41:12.702Z,82.30
2018-03-27T03:43:38.874Z,82.20
2018-03-27T03:46:05.818Z,82.50
2018-03-27T03:48:32.738Z,82.00
2018-03-27T03:50:58.943Z,81.80
2018-03-27T03:53:25.138Z,82.30
2018-03-27T03:55:52.059Z,82.00
2018-03-27T03:58:18.259Z,82.00
2018-03-27T04:00:44.432Z,82.00
2018-03-27T04:03:11.394Z,82.30
2018-03-27T04:05:37.570Z,82.20
2018-03-27T04:08:03.796Z,82.50
2018-03-27T04:10:30.010Z,82.50
2018-03-27T04:12:56.906Z,82.70
2018-03-27T04:15:23.074Z,82.60
2018-03-27T04:17:49.270Z,82.70
2018-03-27T04:20:15.455Z,82.90
2018-03-27T04:22:42.379Z,83.00
2018-03-27T04:25:08.615Z,82.80
2018-03-27T04:27:34.795Z,83.10
2018-03-27T04:30:00.983Z,83.00
2018-03-27T04:32:27.192Z,83.10
2018-03-27T04:34:53.367Z,83.00
2018-03-27T04:37:20.303Z,83.00
2018-03-27T04:39:46.504Z,82.90
2018-03-27T04:42:12.698Z,82.60
2018-03-27T04:44:38.854Z,82.70
2018-03-27T04:47:05.056Z,82.10
2018-03-27T04:49:31.263Z,82.10
2018-03-27T04:51:57.431Z,82.50
2018-03-27T04:54:23.599Z,82.40
2018-03-27T04:56:49.794Z,81.80
2018-03-27T04:59:15.974Z,82.50
2018-03-27T05:01:42.179Z,82.70
2018-03-27T05:04:08.395Z,83.20
2018-03-27T05:06:34.630Z,83.50
2018-03-27T05:09:00.818Z,83.70
2018-03-27T05:11:27.006Z,83.90
2018-03-27T05:13:53.203Z,84.20
2018-03-27T05:16:20.174Z,84.20
2018-03-27T05:18:46.350Z,84.10
2018-03-27T05:21:12.529Z,84.10
2018-03-27T05:23:38.808Z,84.30
2018-03-27T05:26:05.004Z,84.40
2018-03-27T05:28:31.196Z,84.50
2018-03-27T05:30:57.452Z,84.60
2018-03-27T05:33:24.380Z,84.70
2018-03-27T05:35:50.585Z,84.60
2018-03-27T05:38:16.759Z,84.50
2018-03-27T05:40:42.967Z,84.60
2018-03-27T05:43:09.143Z,84.70
2018-03-27T05:45:35.410Z,84.90
2018-03-27T05:48:01.635Z,84.90
2018-03-27T05:50:27.816Z,84.30
2018-03-27T05:52:54.041Z,83.90
2018-03-27T05:55:20.271Z,84.00
2018-03-27T05:57:46.479Z,84.10
2018-03-27T06:00:12.721Z,84.10
2018-03-27T06:02:38.936Z,84.00
2018-03-27T06:05:05.170Z,83.80
2018-03-27T06:07:31.348Z,83.60
2018-03-27T06:09:57.539Z,83.40
2018-03-27T06:12:23.795Z,82.50
2018-03-27T06:14:49.998Z,82.50
2018-03-27T06:17:16.195Z,82.40
2018-03-27T06:19:43.359Z,83.20
2018-03-27T06:22:10.271Z,82.20
2018-03-27T06:24:36.439Z,82.20
2018-03-27T06:27:03.407Z,83.10
2018-03-27T06:29:29.585Z,83.00
2018-03-27T06:31:55.815Z,82.50
2018-03-27T06:34:21.986Z,82.00
2018-03-27T06:36:48.907Z,81.80
2018-03-27T06:39:15.126Z,81.60
2018-03-27T06:41:41.303Z,80.90
2018-03-27T06:44:08.232Z,80.00
2018-03-27T06:46:34.444Z,79.80
2018-03-27T06:49:00.647Z,79.70
2018-03-27T06:51:26.847Z,80.40
2018-03-27T06:53:53.778Z,81.80
2018-03-27T06:56:19.986Z,81.70
2018-03-27T06:58:46.221Z,81.50
2018-03-27T07:01:12.438Z,80.30
2018-03-27T07:03:38.635Z,80.20
2018-03-27T07:06:05.567Z,79.30
2018-03-27T07:08:32.589Z,79.10
2018-03-27T07:10:58.792Z,79.60
2018-03-27T07:13:25.684Z,79.60
2018-03-27T07:15:51.965Z,79.50
2018-03-27T07:18:18.187Z,79.60
2018-03-27T07:20:45.098Z,79.80
2018-03-27T07:23:11.279Z,79.80
2018-03-27T07:25:37.475Z,80.10
2018-03-27T07:28:03.732Z,80.00
2018-03-27T07:30:30.632Z,80.00
2018-03-27T07:32:56.799Z,79.90
2018-03-27T07:35:23.023Z,79.30
2018-03-27T07:37:49.204Z,79.40
2018-03-27T07:40:15.395Z,79.50
2018-03-27T07:42:41.607Z,80.70
2018-03-27T07:45:07.803Z,80.90
2018-03-27T07:47:34.023Z,80.00
2018-03-27T07:50:00.960Z,80.20
2018-03-27T07:52:27.909Z,80.00
2018-03-27T07:54:54.826Z,80.40
2018-03-27T07:57:20.995Z,80.40
2018-03-27T07:59:47.440Z,78.80
2018-03-27T08:02:13.639Z,79.70
2018-03-27T08:04:40.564Z,79.10
2018-03-27T08:07:06.867Z,79.00
2018-03-27T08:09:33.063Z,78.90
2018-03-27T08:11:59.271Z,79.00
2018-03-27T08:14:25.481Z,78.60
2018-03-27T08:16:51.650Z,79.00
2018-03-27T08:19:17.876Z,79.00
2018-03-27T08:21:44.101Z,78.60
2018-03-27T08:24:10.406Z,78.80
2018-03-27T08:26:37.254Z,78.40
2018-03-27T08:29:03.442Z,78.30
2018-03-27T08:31:29.646Z,78.50
2018-03-27T08:33:55.807Z,78.60
2018-03-27T08:36:22.073Z,78.50
2018-03-27T08:38:48.260Z,78.70
2018-03-27T08:41:14.512Z,78.00
2018-03-27T08:43:40.713Z,78.90
2018-03-27T08:46:06.999Z,78.20
2018-03-27T08:48:33.928Z,79.50
2018-03-27T08:51:00.152Z,79.50
2018-03-27T08:53:26.371Z,78.40
2018-03-27T08:55:52.553Z,79.40
2018-03-27T08:58:19.511Z,80.10
2018-03-27T09:00:45.726Z,80.00
2018-03-27T09:03:12.722Z,78.90
2018-03-27T09:05:38.882Z,78.70
2018-03-27T09:08:05.090Z,80.30
2018-03-27T09:10:31.323Z,80.10
2018-03-27T09:12:57.531Z,80.50
2018-03-27T09:15:23.710Z,80.00
2018-03-27T09:17:49.903Z,79.80
2018-03-27T09:20:16.116Z,79.90
2018-03-27T09:22:42.296Z,79.20
2018-03-27T09:25:08.497Z,78.60
2018-03-27T09:27:34.682Z,79.50
2018-03-27T09:30:00.892Z,78.90
2018-03-27T09:32:27.054Z,79.30
2018-03-27T09:34:53.242Z,79.80
2018-03-27T09:37:19.498Z,79.00
2018-03-27T09:39:45.667Z,78.50
2018-03-27T09:42:12.620Z,80.50
2018-03-27T09:44:39.530Z,80.00
2018-03-27T09:47:05.733Z,80.00
2018-03-27T09:49:31.926Z,79.90
2018-03-27T09:51:58.871Z,80.80
2018-03-27T09:54:25.104Z,80.60
2018-03-27T09:56:51.303Z,80.10
2018-03-27T09:59:17.547Z,80.30
2018-03-27T10:01:43.776Z,80.50
2018-03-27T10:04:09.951Z,79.90
2018-03-27T10:06:36.886Z,78.30
2018-03-27T10:09:03.131Z,78.20
2018-03-27T10:11:30.271Z,77.70
2018-03-27T10:13:56.454Z,77.60
2018-03-27T10:16:22.647Z,78.20
2018-03-27T10:18:49.603Z,78.30
2018-03-27T10:21:16.571Z,78.40
2018-03-27T10:23:42.848Z,78.30
2018-03-27T10:26:09.025Z,77.70
2018-03-27T10:28:35.951Z,78.30
2018-03-27T10:31:02.213Z,78.30
2018-03-27T10:33:29.127Z,77.60
2018-03-27T10:35:55.343Z,77.50
2018-03-27T10:38:21.529Z,77.80
2018-03-27T10:40:48.442Z,78.60
2018-03-27T10:43:14.684Z,78.60
2018-03-27T10:45:42.435Z,77.20
2018-03-27T10:48:08.604Z,77.20
2018-03-27T10:50:35.543Z,78.90
2018-03-27T10:53:01.750Z,78.90
2018-03-27T10:55:27.974Z,78.40
2018-03-27T10:57:54.155Z,78.60
2018-03-27T11:00:21.151Z,79.30
2018-03-27T11:02:47.351Z,78.50
2018-03-27T11:05:13.562Z,79.10
2018-03-27T11:07:40.486Z,79.40
2018-03-27T11:10:06.708Z,80.10
2018-03-27T11:12:32.922Z,79.10
2018-03-27T11:14:59.116Z,78.40
2018-03-27T11:17:26.053Z,79.20
2018-03-27T11:19:52.263Z,79.10
2018-03-27T11:22:18.457Z,79.20
2018-03-27T11:24:44.638Z,78.40
2018-03-27T11:27:10.878Z,79.40
2018-03-27T11:29:37.787Z,79.20
2018-03-27T11:32:03.960Z,79.10
2018-03-27T11:34:30.207Z,79.00
2018-03-27T11:36:57.124Z,78.90
2018-03-27T11:39:23.323Z,78.80
2018-03-27T11:41:49.536Z,78.80
2018-03-27T11:44:16.447Z,79.50
2018-03-27T11:46:42.654Z,79.50
2018-03-27T11:49:08.861Z,79.00
2018-03-27T11:51:35.107Z,78.90
2018-03-27T11:54:01.298Z,79.30
2018-03-27T11:56:27.466Z,79.30
2018-03-27T11:58:53.674Z,79.50
2018-03-27T12:01:20.624Z,79.90
2018-03-27T12:03:47.607Z,79.30
2018-03-27T12:06:13.778Z,80.00
2018-03-27T12:08:39.954Z,79.30
2018-03-27T12:11:06.179Z,80.10
2018-03-27T12:13:33.087Z,79.50
2018-03-27T12:15:59.308Z,79.40
2018-03-27T12:18:25.488Z,80.00
2018-03-27T12:20:52.455Z,79.70
2018-03-27T12:23:20.472Z,79.80
2018-03-27T12:25:46.677Z,79.70
2018-03-27T12:28:12.866Z,79.20
2018-03-27T12:30:39.091Z,79.00
2018-03-27T12:33:05.298Z,80.10
2018-03-27T12:35:31.504Z,79.40
2018-03-27T12:37:57.688Z,80.10
2018-03-27T12:40:24.643Z,80.70
2018-03-27T12:42:50.852Z,80.60
2018-03-27T12:45:17.032Z,81.00
2018-03-27T12:47:44.093Z,81.30
2018-03-27T12:50:10.243Z,81.20
2018-03-27T12:52:36.433Z,80.20
2018-03-27T12:55:02.631Z,80.60
2018-03-27T12:57:28.811Z,81.20
2018-03-27T12:59:55.780Z,81.10
2018-03-27T13:02:21.958Z,81.10
2018-03-27T13:04:48.166Z,80.50
2018-03-27T13:07:14.352Z,79.00
2018-03-27T13:09:41.287Z,78.60
2018-03-27T13:12:07.494Z,77.90
2018-03-27T13:14:33.728Z,78.40
2018-03-27T13:16:59.951Z,78.80
2018-03-27T13:19:26.138Z,78.70
2018-03-27T13:21:53.092Z,80.00
2018-03-27T13:24:20.108Z,79.40
2018-03-27T13:26:46.295Z,79.40
2018-03-27T13:29:13.234Z,79.40
2018-03-27T13:31:39.451Z,80.30
2018-03-27T13:34:06.381Z,81.30
2018-03-27T13:36:32.583Z,81.20
2018-03-27T13:38:58.871Z,81.40
2018-03-27T13:41:25.030Z,81.80
2018-03-27T13:43:51.268Z,80.20
2018-03-27T13:46:17.467Z,80.70
2018-03-27T13:48:44.452Z,80.50
2018-03-27T13:51:10.635Z,80.30
2018-03-27T13:53:36.913Z,80.80
2018-03-27T13:56:03.817Z,80.40
2018-03-27T13:58:30.036Z,80.40
2018-03-27T14:00:56.336Z,80.10
2018-03-27T14:03:22.506Z,81.00
2018-03-27T14:05:55.678Z,81.30
2018-03-27T14:08:21.844Z,80.30
2018-03-27T14:10:48.028Z,80.00
2018-03-27T14:13:14.294Z,80.80
2018-03-27T14:15:40.476Z,80.70
2018-03-27T14:18:06.704Z,81.20
2018-03-27T14:20:33.627Z,80.80
2018-03-27T14:22:59.811Z,80.80
2018-03-27T14:25:26.227Z,81.00
2018-03-27T14:27:53.175Z,80.20
2018-03-27T14:30:20.119Z,80.00
2018-03-27T14:32:47.102Z,79.70
2018-03-27T14:35:13.301Z,79.60
2018-03-27T14:37:40.216Z,80.30
2018-03-27T14:40:06.427Z,80.20
2018-03-27T14:42:32.634Z,80.20
2018-03-27T14:44:58.853Z,80.10
2018-03-27T14:47:25.076Z,79.40
2018-03-27T14:49:52.048Z,79.70
2018-03-27T14:52:18.311Z,79.60
2018-03-27T14:54:44.496Z,79.90
2018-03-27T14:57:11.443Z,80.40
2018-03-27T14:59:38.513Z,81.10
2018-03-27T15:02:04.711Z,81.00
2018-03-27T15:04:30.901Z,81.20
2018-03-27T15:06:57.147Z,80.70
2018-03-27T15:09:23.339Z,80.80
2018-03-27T15:11:50.264Z,80.90
2018-03-27T15:14:16.475Z,80.80
2018-03-27T15:16:42.642Z,80.90
2018-03-27T15:19:09.638Z,81.50
2018-03-27T15:21:35.835Z,81.40
2018-03-27T15:24:02.771Z,82.00
2018-03-27T15:26:28.993Z,81.80
2018-03-27T15:28:55.192Z,82.90
2018-03-27T15:31:21.400Z,82.00
2018-03-27T15:33:47.625Z,81.60
2018-03-27T15:36:14.596Z,82.30
2018-03-27T15:38:40.835Z,82.20
2018-03-27T15:41:07.018Z,82.10
2018-03-27T15:43:33.214Z,81.80
2018-03-27T15:45:59.434Z,81.80
2018-03-27T15:48:25.621Z,81.90
2018-03-27T15:50:52.632Z,82.80
2018-03-27T15:53:18.810Z,82.70
2018-03-27T15:55:45.015Z,82.20
2018-03-27T15:58:12.049Z,82.70
2018-03-27T16:00:38.259Z,82.30
2018-03-27T16:03:04.448Z,82.80
2018-03-27T16:05:30.739Z,82.60
2018-03-27T16:07:56.970Z,82.20
2018-03-27T16:10:23.175Z,82.00
2018-03-27T16:12:50.099Z,81.80
2018-03-27T16:15:16.355Z,81.70
2018-03-27T16:17:43.320Z,82.00
2018-03-27T16:20:09.530Z,82.00
2018-03-27T16:22:36.543Z,82.00
2018-03-27T16:25:02.752Z,81.90
2018-03-27T16:27:29.009Z,82.60
2018-03-27T16:29:55.263Z,82.40
2018-03-27T16:32:21.443Z,82.50
2018-03-27T16:34:47.611Z,82.70
2018-03-27T16:37:13.824Z,83.10
2018-03-27T16:39:40.001Z,82.80
2018-03-27T16:42:06.219Z,82.90
2018-03-27T16:44:32.405Z,82.50
2018-03-27T16:46:58.678Z,82.10
2018-03-27T16:49:24.886Z,81.60
2018-03-27T16:51:51.059Z,82.00
2018-03-27T16:54:17.274Z,82.30
2018-03-27T16:56:43.460Z,82.20
2018-03-27T16:59:09.721Z,82.90
2018-03-27T17:01:35.942Z,83.00
2018-03-27T17:04:02.131Z,83.40
2018-03-27T17:06:28.342Z,83.40
2018-03-27T17:08:54.603Z,83.70
2018-03-27T17:11:20.779Z,83.90
2018-03-27T17:13:46.991Z,83.50
2018-03-27T17:16:13.935Z,83.70
2018-03-27T17:18:40.927Z,83.20
2018-03-27T17:21:07.166Z,83.20
2018-03-27T17:23:40.439Z,83.00
2018-03-27T17:26:06.619Z,82.90
2018-03-27T17:28:32.845Z,83.30
2018-03-27T17:30:59.065Z,83.40
2018-03-27T17:33:25.248Z,83.50
2018-03-27T17:35:52.241Z,83.30
2018-03-27T17:38:18.457Z,83.20
2018-03-27T17:40:44.698Z,83.50
2018-03-27T17:43:10.899Z,83.70
2018-03-27T17:45:37.858Z,83.90
2018-03-27T17:48:04.107Z,83.80
2018-03-27T17:50:30.356Z,84.00
2018-03-27T17:52:56.539Z,83.70
2018-03-27T17:55:23.522Z,83.70
2018-03-27T17:57:49.731Z,83.70
2018-03-27T18:00:16.734Z,83.90
2018-03-27T18:02:42.971Z,83.80
2018-03-27T18:05:09.179Z,83.90
2018-03-27T18:07:35.378Z,84.10
2018-03-27T18:10:02.342Z,84.20
2018-03-27T18:12:28.554Z,84.10
2018-03-27T18:14:55.500Z,84.10
2018-03-27T18:17:22.516Z,84.30
2018-03-27T18:19:48.707Z,83.50
2018-03-27T18:22:14.906Z,83.60
2018-03-27T18:24:41.111Z,83.80
2018-03-27T18:27:07.315Z,84.50
2018-03-27T18:29:33.555Z,83.60
2018-03-27T18:31:59.830Z,83.40
2018-03-27T18:34:26.004Z,83.60
2018-03-27T18:36:52.206Z,83.60
2018-03-27T18:39:18.433Z,83.90
2018-03-27T18:41:44.610Z,83.80
2018-03-27T18:44:10.866Z,84.00
2018-03-27T18:46:37.043Z,84.00
2018-03-27T18:49:03.232Z,84.60
2018-03-27T18:51:29.418Z,84.50
2018-03-27T18:53:56.401Z,85.50
2018-03-27T18:56:22.606Z,84.60
2018-03-27T18:58:49.527Z,84.40
2018-03-27T19:01:15.774Z,84.20
2018-03-27T19:03:42.733Z,84.30
2018-03-27T19:06:08.918Z,84.20
2018-03-27T19:08:35.167Z,84.20
2018-03-27T19:11:01.366Z,84.20
2018-03-27T19:13:27.595Z,84.10
2018-03-27T19:15:53.791Z,83.70
2018-03-27T19:18:20.740Z,83.50
2018-03-27T19:20:47.691Z,83.70
2018-03-27T19:23:14.684Z,83.20
2018-03-27T19:25:41.618Z,83.30
2018-03-27T19:28:08.539Z,83.30
2018-03-27T19:30:36.270Z,82.90
2018-03-27T19:33:02.449Z,82.90
2018-03-27T19:35:28.624Z,83.00
2018-03-27T19:37:54.835Z,82.60
2018-03-27T19:40:21.071Z,82.80
2018-03-27T19:42:47.288Z,83.20
2018-03-27T19:45:14.213Z,83.30
2018-03-27T19:47:40.463Z,83.20
2018-03-27T19:50:06.671Z,83.30
2018-03-27T19:52:32.863Z,83.50
2018-03-27T19:54:59.087Z,83.70
2018-03-27T19:57:25.999Z,83.50
2018-03-27T19:59:52.212Z,83.40
2018-03-27T20:02:18.410Z,83.00
2018-03-27T20:04:44.683Z,84.00
2018-03-27T20:07:10.905Z,84.10
2018-03-27T20:09:37.110Z,84.10
2018-03-27T20:12:03.366Z,84.10
2018-03-27T20:14:29.671Z,84.20
2018-03-27T20:16:55.916Z,84.40
2018-03-27T20:19:22.086Z,84.30
2018-03-27T20:21:48.344Z,84.20
2018-03-27T20:24:14.571Z,84.20
2018-03-27T20:26:42.247Z,83.90
2018-03-27T20:29:08.491Z,83.90
2018-03-27T20:31:35.418Z,83.70
2018-03-27T20:34:01.596Z,83.60
2018-03-27T20:36:27.811Z,83.90
2018-03-27T20:38:54.746Z,84.60
2018-03-27T20:41:21.695Z,85.30
2018-03-27T20:43:47.894Z,84.80
2018-03-27T20:46:14.104Z,85.10
2018-03-27T20:48:40.310Z,84.90
2018-03-27T20:51:07.264Z,84.30
2018-03-27T20:53:34.183Z,84.40
2018-03-27T20:56:01.136Z,84.80
2018-03-27T20:58:27.346Z,84.70
2018-03-27T21:00:53.532Z,85.00
2018-03-27T21:03:19.827Z,85.30
2018-03-27T21:05:46.017Z,85.30
2018-03-27T21:08:12.200Z,84.70
2018-03-27T21:10:39.203Z,84.10
2018-03-27T21:13:05.416Z,84.10
2018-03-27T21:15:32.330Z,84.60
2018-03-27T21:17:58.627Z,84.50
2018-03-27T21:20:24.816Z,85.70
2018-03-27T21:22:51.757Z,85.30
2018-03-27T21:25:19.454Z,84.90
2018-03-27T21:27:45.714Z,84.80
2018-03-27T21:30:11.969Z,84.90
2018-03-27T21:32:38.217Z,85.80
2018-03-27T21:35:04.453Z,85.70
2018-03-27T21:37:30.687Z,85.10
2018-03-27T21:39:56.870Z,85.60
2018-03-27T21:42:23.143Z,85.20
2018-03-27T21:44:49.339Z,85.20
2018-03-27T21:47:15.548Z,85.20
2018-03-27T21:49:42.512Z,85.30
2018-03-27T21:52:08.733Z,85.20
2018-03-27T21:54:35.702Z,85.30
2018-03-27T21:57:02.072Z,85.30
2018-03-27T21:59:28.247Z,84.90
2018-03-27T22:01:55.195Z,84.60
2018-03-27T22:04:22.356Z,85.30
2018-03-27T22:06:49.322Z,85.60
2018-03-27T22:09:15.523Z,85.50
2018-03-27T22:11:42.498Z,84.50
2018-03-27T22:14:08.699Z,84.30
2018-03-27T22:16:35.652Z,83.30
2018-03-27T22:19:01.873Z,83.20
2018-03-27T22:21:28.070Z,82.20
2018-03-27T22:23:54.286Z,83.00
2018-03-27T22:26:20.508Z,83.90
2018-03-27T22:28:47.435Z,84.50
2018-03-27T22:31:13.663Z,84.40
2018-03-27T22:33:46.751Z,85.00
2018-03-27T22:36:12.962Z,85.00
2018-03-27T22:38:39.232Z,85.10
2018-03-27T22:41:06.157Z,85.30
2018-03-27T22:43:32.362Z,85.20
2018-03-27T22:45:58.649Z,84.00
2018-03-27T22:48:25.572Z,83.30
2018-03-27T22:50:51.764Z,83.30
2018-03-27T22:53:17.982Z,83.00
2018-03-27T22:55:44.952Z,82.10
2018-03-27T22:58:11.187Z,82.00
2018-03-27T23:00:37.434Z,82.70
2018-03-27T23:03:03.691Z,83.00
2018-03-27T23:05:29.888Z,84.40
2018-03-27T23:07:56.095Z,82.90
2018-03-27T23:10:23.066Z,82.70
2018-03-27T23:12:49.358Z,82.50
2018-03-27T23:15:15.539Z,83.50
2018-03-27T23:17:41.735Z,84.20
2018-03-27T23:20:07.934Z,85.20
2018-03-27T23:22:34.142Z,85.00
2018-03-27T23:25:00.325Z,85.10
2018-03-27T23:27:27.257Z,84.90
2018-03-27T23:29:53.466Z,84.80
2018-03-27T23:32:19.691Z,85.70
2018-03-27T23:34:45.883Z,87.00
2018-03-27T23:37:12.895Z,87.60
2018-03-27T23:39:39.078Z,86.90
2018-03-27T23:42:06.055Z,86.50
2018-03-27T23:44:32.276Z,86.40
2018-03-27T23:46:58.450Z,85.30
2018-03-27T23:49:24.657Z,85.90
2018-03-27T23:51:50.851Z,86.30
2018-03-27T23:54:17.847Z,85.50
2018-03-27T23:56:44.057Z,85.00
2018-03-27T23:59:10.227Z,84.60
